Time;durP1;ratioP1;P1;durP2;ratioP2;P2;SDS_P1;SDS_P2;PMS_P1;PMS_P2;Temp;Humidity;BMP_temperature;BMP_pressure;BME280_temperature;BME280_humidity;BME280_pressure;Samples;Min_cycle;Max_cycle;Signal;HPM_P1;HPM_P2
2023/11/28 00:01:10;;;;;;;10.17;7.03;;;0.50;99.90;;;;;;4885771;29;20323;-96
2023/11/28 00:03:35;;;;;;;9.43;6.70;;;0.50;99.90;;;;;;5281371;23;20294;-89
2023/11/28 00:06:01;;;;;;;8.70;6.70;;;0.50;99.90;;;;;;4891779;29;20191;-89
2023/11/28 00:08:27;;;;;;;9.37;7.10;;;0.50;99.90;;;;;;4893507;29;20198;-86
2023/11/28 00:10:53;;;;;;;7.83;6.30;;;0.50;99.90;;;;;;4896173;29;20194;-90
2023/11/28 00:13:19;;;;;;;8.10;6.40;;;0.40;99.90;;;;;;4892044;29;20195;-93
2023/11/28 00:15:49;;;;;;;8.70;6.80;;;0.40;99.90;;;;;;4885794;29;20187;-92
2023/11/28 00:18:15;;;;;;;8.83;6.30;;;0.40;99.90;;;;;;4885867;29;20195;-93
2023/11/28 00:20:41;;;;;;;9.60;6.37;;;0.40;99.90;;;;;;4885528;29;20230;-92
2023/11/28 00:23:07;;;;;;;8.33;6.23;;;0.40;99.90;;;;;;4893609;29;20195;-92
2023/11/28 00:25:37;;;;;;;8.63;6.20;;;0.40;99.90;;;;;;4885432;29;20690;-95
2023/11/28 00:28:02;;;;;;;7.70;5.63;;;0.40;99.90;;;;;;4914137;29;20246;-94
2023/11/28 00:30:28;;;;;;;8.23;5.90;;;0.40;99.90;;;;;;4891743;29;20599;-94
2023/11/28 00:32:54;;;;;;;8.27;5.30;;;0.40;99.90;;;;;;4895153;29;20220;-90
2023/11/28 00:35:31;;;;;;;7.83;5.57;;;0.40;99.90;;;;;;4885911;29;20199;-92
2023/11/28 00:37:57;;;;;;;7.33;5.40;;;0.40;99.90;;;;;;4909505;29;20689;-92
2023/11/28 00:40:27;;;;;;;8.30;5.77;;;0.40;99.90;;;;;;4885780;29;20227;-96
2023/11/28 00:42:52;;;;;;;7.40;5.53;;;0.50;99.90;;;;;;4901448;29;20198;-96
2023/11/28 00:45:24;;;;;;;7.13;5.30;;;0.40;99.90;;;;;;4895392;29;20615;-92
2023/11/28 00:47:50;;;;;;;8.07;5.97;;;0.40;99.90;;;;;;4896551;29;20627;-90
2023/11/28 00:50:17;;;;;;;6.53;4.77;;;0.40;99.90;;;;;;4895863;29;20227;-90
2023/11/28 00:52:44;;;;;;;6.37;4.77;;;0.40;99.90;;;;;;4891808;29;20580;-92
2023/11/28 00:55:10;;;;;;;7.10;5.30;;;0.40;99.90;;;;;;4892633;29;20191;-92
2023/11/28 00:57:36;;;;;;;7.87;5.47;;;0.50;99.90;;;;;;4891720;29;20701;-96
2023/11/28 01:00:02;;;;;;;7.17;5.17;;;0.40;99.90;;;;;;4889273;29;20679;-92
2023/11/28 01:02:28;;;;;;;7.57;5.40;;;0.50;99.90;;;;;;4898293;29;20202;-89
2023/11/28 01:05:01;;;;;;;7.30;5.87;;;0.40;99.90;;;;;;4867700;29;20239;-94
2023/11/28 01:07:26;;;;;;;6.77;5.27;;;0.40;99.90;;;;;;4866422;29;20295;-93
2023/11/28 01:09:52;;;;;;;10.83;6.20;;;0.40;99.90;;;;;;4870532;29;20279;-95
2023/11/28 01:12:19;;;;;;;8.60;5.80;;;0.40;99.90;;;;;;4888956;29;20630;-92
2023/11/28 01:14:45;;;;;;;7.07;5.63;;;0.40;99.90;;;;;;4883232;29;20225;-93
2023/11/28 01:17:12;;;;;;;8.57;6.20;;;0.40;99.90;;;;;;4891202;29;20508;-93
2023/11/28 01:19:38;;;;;;;8.37;5.37;;;0.40;99.90;;;;;;4865865;29;20233;-92
2023/11/28 01:22:06;;;;;;;6.80;5.63;;;0.40;99.90;;;;;;4866199;29;20287;-93
2023/11/28 01:24:33;;;;;;;8.40;6.07;;;0.40;99.90;;;;;;4873748;29;20654;-91
2023/11/28 01:27:02;;;;;;;7.17;5.47;;;0.30;99.90;;;;;;4867319;29;20192;-93
2023/11/28 01:29:27;;;;;;;7.93;5.80;;;0.40;99.90;;;;;;4867938;29;20218;-92
2023/11/28 01:31:53;;;;;;;7.27;5.63;;;0.30;99.90;;;;;;4871089;29;20712;-93
2023/11/28 01:34:19;;;;;;;10.17;5.97;;;0.30;99.90;;;;;;4865831;29;20623;-91
2023/11/28 01:36:45;;;;;;;8.83;6.20;;;0.40;99.90;;;;;;4865264;29;20188;-93
2023/11/28 01:39:12;;;;;;;7.93;6.10;;;0.30;99.90;;;;;;4865138;29;20224;-94
2023/11/28 01:41:38;;;;;;;6.43;4.53;;;0.30;99.90;;;;;;4882245;29;20327;-96
2023/11/28 01:44:05;;;;;;;11.17;6.77;;;0.30;99.90;;;;;;4868455;29;20191;-89
2023/11/28 01:46:45;;;;;;;8.63;6.13;;;0.30;99.90;;;;;;4888771;29;20192;-95
2023/11/28 01:49:12;;;;;;;11.33;6.33;;;0.30;99.90;;;;;;4882843;29;20608;-94
2023/11/28 01:51:38;;;;;;;12.27;6.27;;;0.30;99.90;;;;;;4882140;29;20195;-96
2023/11/28 01:54:06;;;;;;;9.57;6.80;;;0.30;99.90;;;;;;4884847;29;20192;-95
2023/11/28 01:56:34;;;;;;;10.73;7.13;;;0.30;99.90;;;;;;4883528;29;20251;-94
2023/11/28 01:59:01;;;;;;;9.23;7.13;;;0.30;99.90;;;;;;4867950;29;20300;-96
2023/11/28 02:01:27;;;;;;;8.23;6.47;;;0.30;99.90;;;;;;4875706;29;20211;-94
2023/11/28 02:03:53;;;;;;;8.10;6.53;;;0.30;99.90;;;;;;4866154;29;20266;-89
2023/11/28 02:06:19;;;;;;;10.67;6.27;;;0.20;99.90;;;;;;4891712;29;20245;-90
2023/11/28 02:08:45;;;;;;;9.43;6.80;;;0.20;99.90;;;;;;4877432;29;20541;-94
2023/11/28 02:11:11;;;;;;;10.00;6.37;;;0.30;99.90;;;;;;4878283;29;20199;-91
2023/11/28 02:13:37;;;;;;;9.70;6.23;;;0.30;99.90;;;;;;4878166;29;20206;-94
2023/11/28 02:16:14;;;;;;;7.37;5.87;;;0.20;99.90;;;;;;4865983;29;20195;-94
2023/11/28 02:18:40;;;;;;;10.83;5.90;;;0.20;99.90;;;;;;4865140;29;20221;-94
2023/11/28 02:21:09;;;;;;;9.37;6.10;;;0.20;99.90;;;;;;4868558;29;20255;-93
2023/11/28 02:23:36;;;;;;;7.97;5.57;;;0.20;99.90;;;;;;4879882;29;20192;-96
2023/11/28 02:26:55;;;;;;;8.53;6.53;;;0.20;99.90;;;;;;4867314;29;20196;-96
2023/11/28 02:29:21;;;;;;;7.50;5.63;;;0.20;99.90;;;;;;4866204;29;20200;-94
2023/11/28 02:31:46;;;;;;;10.03;5.93;;;0.20;99.90;;;;;;4865127;29;20195;-96
2023/11/28 02:34:12;;;;;;;9.47;6.13;;;0.20;99.90;;;;;;4875527;29;20529;-93
2023/11/28 02:36:50;;;;;;;8.93;6.10;;;0.20;99.90;;;;;;4865859;29;20195;-94
2023/11/28 02:39:15;;;;;;;10.33;6.40;;;0.20;99.90;;;;;;4866419;29;20276;-93
2023/11/28 02:41:41;;;;;;;9.20;6.47;;;0.20;99.90;;;;;;4866454;29;20604;-94
2023/11/28 02:44:07;;;;;;;10.57;5.83;;;0.20;99.90;;;;;;4873890;29;20255;-96
2023/11/28 02:46:43;;;;;;;7.63;5.27;;;0.20;99.90;;;;;;4869392;29;20255;-95
2023/11/28 02:49:09;;;;;;;9.07;6.37;;;0.20;99.90;;;;;;4867415;29;20506;-94
2023/11/28 02:51:35;;;;;;;8.47;5.37;;;0.20;99.90;;;;;;4864737;29;20341;-95
2023/11/28 02:54:01;;;;;;;10.33;5.77;;;0.20;99.90;;;;;;4872612;29;20655;-95
2023/11/28 02:56:37;;;;;;;7.83;5.30;;;0.10;99.90;;;;;;4870662;29;20202;-91
2023/11/28 02:59:02;;;;;;;9.90;6.57;;;0.20;99.90;;;;;;4864509;29;20219;-95
2023/11/28 03:01:28;;;;;;;8.60;5.90;;;0.10;99.90;;;;;;4889097;29;20268;-95
2023/11/28 03:03:54;;;;;;;8.57;6.20;;;0.10;99.90;;;;;;4874669;29;20234;-93
2023/11/28 03:06:21;;;;;;;8.40;5.97;;;0.10;99.90;;;;;;4903991;29;20291;-96
2023/11/28 03:08:47;;;;;;;9.20;6.03;;;0.10;99.90;;;;;;4888018;29;20175;-93
2023/11/28 03:11:13;;;;;;;7.30;5.40;;;0.10;99.90;;;;;;4885953;29;20657;-95
2023/11/28 03:13:45;;;;;;;9.60;6.33;;;0.10;99.90;;;;;;4885366;29;20645;-92
2023/11/28 03:16:11;;;;;;;9.57;6.00;;;0.20;99.90;;;;;;4885192;29;20206;-93
2023/11/28 03:18:37;;;;;;;10.07;6.00;;;0.10;99.90;;;;;;4886761;29;20195;-95
2023/11/28 03:21:04;;;;;;;7.43;5.77;;;0.10;99.90;;;;;;4894161;29;20203;-91
2023/11/28 03:23:29;;;;;;;9.50;6.43;;;0.10;99.90;;;;;;4887675;29;20199;-94
2023/11/28 03:25:56;;;;;;;10.73;6.60;;;0.10;99.90;;;;;;4895763;29;20199;-96
2023/11/28 03:28:22;;;;;;;9.40;6.13;;;0.10;99.90;;;;;;4887204;29;20278;-93
2023/11/28 03:30:48;;;;;;;8.53;6.03;;;0.00;99.90;;;;;;4905872;29;20239;-88
2023/11/28 03:33:13;;;;;;;8.33;5.97;;;0.00;99.90;;;;;;4892144;29;20201;-93
2023/11/28 03:35:46;;;;;;;8.93;5.80;;;0.00;99.90;;;;;;4888289;29;20267;-94
2023/11/28 03:38:12;;;;;;;9.90;6.23;;;0.00;99.90;;;;;;4902664;29;20260;-96
2023/11/28 03:40:38;;;;;;;9.63;6.33;;;0.00;99.90;;;;;;4904263;29;20681;-94
2023/11/28 03:43:04;;;;;;;10.43;6.77;;;0.00;99.90;;;;;;4887440;29;20190;-94
2023/11/28 03:45:30;;;;;;;8.87;6.07;;;0.00;99.90;;;;;;4902459;29;20199;-96
2023/11/28 03:47:56;;;;;;;10.50;6.80;;;0.00;99.90;;;;;;4906223;29;20535;-94
2023/11/28 03:50:22;;;;;;;9.87;6.47;;;0.00;99.90;;;;;;4904476;29;20191;-90
2023/11/28 03:52:48;;;;;;;10.20;5.97;;;0.00;99.90;;;;;;4906142;29;20207;-87
2023/11/28 03:55:13;;;;;;;8.57;5.80;;;0.00;99.90;;;;;;4886021;29;20191;-87
2023/11/28 03:57:41;;;;;;;11.40;6.10;;;0.00;99.90;;;;;;4920271;29;20190;-90
2023/11/28 04:00:09;;;;;;;8.53;5.93;;;0.00;99.90;;;;;;4896886;29;20222;-88
2023/11/28 04:02:35;;;;;;;9.47;5.70;;;0.00;99.90;;;;;;4890570;29;20191;-87
2023/11/28 04:05:06;;;;;;;9.07;5.70;;;0.00;99.90;;;;;;4888016;29;20214;-89
2023/11/28 04:07:37;;;;;;;10.37;6.50;;;-0.10;99.90;;;;;;4895385;29;20191;-94
2023/11/28 04:10:03;;;;;;;10.57;6.03;;;-0.10;99.90;;;;;;4887877;29;20528;-94
2023/11/28 04:12:29;;;;;;;8.60;5.97;;;-0.10;99.90;;;;;;4911820;29;20201;-93
2023/11/28 04:14:55;;;;;;;9.63;6.23;;;-0.10;99.90;;;;;;4887220;29;20206;-95
2023/11/28 04:17:26;;;;;;;10.60;6.03;;;-0.10;99.90;;;;;;4905044;29;20215;-94
2023/11/28 04:19:51;;;;;;;8.53;5.40;;;0.00;99.90;;;;;;4903073;29;20231;-94
2023/11/28 04:22:17;;;;;;;10.63;5.87;;;0.00;99.90;;;;;;4909880;29;20227;-88
2023/11/28 04:24:43;;;;;;;14.37;6.07;;;-0.10;99.90;;;;;;4887790;29;20226;-93
2023/11/28 04:27:11;;;;;;;8.43;5.33;;;-0.10;99.90;;;;;;4903850;29;20191;-96
2023/11/28 04:29:37;;;;;;;13.00;5.63;;;-0.10;99.90;;;;;;4905238;29;20198;-93
2023/11/28 04:32:03;;;;;;;10.03;5.33;;;-0.20;99.90;;;;;;4889708;29;20210;-88
2023/11/28 04:34:29;;;;;;;9.07;5.70;;;-0.20;99.90;;;;;;4889577;29;20754;-89
2023/11/28 04:36:56;;;;;;;9.47;5.83;;;-0.30;99.90;;;;;;4886420;29;20285;-89
2023/11/28 04:39:21;;;;;;;10.57;6.63;;;-0.30;99.90;;;;;;4887882;29;20222;-89
2023/11/28 04:41:47;;;;;;;8.37;5.33;;;-0.20;99.90;;;;;;4889881;29;20199;-96
2023/11/28 04:44:13;;;;;;;8.10;5.47;;;-0.20;99.90;;;;;;4890059;29;20223;-92
2023/11/28 04:46:43;;;;;;;9.20;5.53;;;-0.20;99.90;;;;;;4888206;29;20195;-90
2023/11/28 04:49:13;;;;;;;7.93;5.67;;;-0.30;99.90;;;;;;4900020;29;20195;-87
2023/11/28 04:51:40;;;;;;;8.77;5.53;;;-0.20;99.90;;;;;;4887115;29;20195;-89
2023/11/28 04:54:08;;;;;;;7.20;4.97;;;-0.30;99.90;;;;;;4909004;29;20250;-89
2023/11/28 04:56:40;;;;;;;8.40;5.23;;;-0.30;99.90;;;;;;4893863;29;20183;-92
2023/11/28 04:59:06;;;;;;;11.17;5.20;;;-0.30;99.90;;;;;;4898931;29;20219;-93
2023/11/28 05:01:32;;;;;;;7.07;4.80;;;-0.40;99.90;;;;;;4886661;29;20187;-94
2023/11/28 05:03:58;;;;;;;9.30;5.23;;;-0.40;99.90;;;;;;4889934;23;20246;-95
2023/11/28 05:06:33;;;;;;;9.43;4.93;;;-0.40;99.90;;;;;;4963386;29;20265;-96
2023/11/28 05:08:59;;;;;;;6.90;4.77;;;-0.40;99.90;;;;;;4939154;29;20189;-94
2023/11/28 05:11:25;;;;;;;7.00;4.43;;;-0.40;99.90;;;;;;4950603;29;20241;-93
2023/11/28 05:13:51;;;;;;;6.37;3.90;;;-0.40;99.90;;;;;;4931968;29;20182;-96
2023/11/28 05:16:17;;;;;;;7.90;4.77;;;-0.50;99.90;;;;;;4929610;29;20683;-94
2023/11/28 05:18:43;;;;;;;10.40;4.53;;;-0.50;99.90;;;;;;4927991;29;20190;-96
2023/11/28 05:21:08;;;;;;;8.33;4.50;;;-0.50;99.90;;;;;;4932006;29;20220;-95
2023/11/28 05:23:34;;;;;;;8.60;4.47;;;-0.60;99.90;;;;;;4933871;29;20278;-93
2023/11/28 05:26:00;;;;;;;7.83;4.30;;;-0.50;99.90;;;;;;4929646;29;20196;-96
2023/11/28 05:28:38;;;;;;;7.53;4.10;;;-0.50;99.90;;;;;;4949470;29;20182;-96
2023/11/28 05:31:04;;;;;;;6.77;3.93;;;-0.60;99.90;;;;;;4933593;29;20196;-96
2023/11/28 05:33:31;;;;;;;5.60;4.00;;;-0.60;99.90;;;;;;4932433;29;20182;-94
2023/11/28 05:35:57;;;;;;;6.13;4.00;;;-0.60;99.90;;;;;;4934717;29;20193;-91
2023/11/28 05:38:31;;;;;;;7.57;4.00;;;-0.70;99.90;;;;;;4921751;29;20201;-96
2023/11/28 05:40:56;;;;;;;7.77;4.30;;;-0.70;99.90;;;;;;4962888;23;20234;-95
2023/11/28 05:43:22;;;;;;;7.50;4.53;;;-0.70;99.90;;;;;;4907548;29;20190;-95
2023/11/28 05:45:48;;;;;;;8.20;4.23;;;-0.70;99.90;;;;;;4908600;29;20186;-95
2023/11/28 05:48:16;;;;;;;7.80;4.20;;;-0.80;99.90;;;;;;4924364;29;20197;-95
2023/11/28 05:50:42;;;;;;;5.07;3.77;;;-0.80;99.90;;;;;;4930683;29;20260;-93
2023/11/28 05:53:08;;;;;;;8.27;4.40;;;-0.90;99.90;;;;;;4930762;29;20692;-96
2023/11/28 05:55:33;;;;;;;6.13;3.40;;;-0.90;99.90;;;;;;4941746;29;20182;-96
2023/11/28 05:58:08;;;;;;;7.20;4.33;;;-0.80;99.90;;;;;;4921450;29;20183;-94
2023/11/28 06:00:34;;;;;;;6.47;3.60;;;-0.80;99.90;;;;;;4907099;29;20210;-95
2023/11/28 06:03:00;;;;;;;8.57;4.10;;;-0.80;99.90;;;;;;4902733;29;20211;-95
2023/11/28 06:05:26;;;;;;;5.70;3.60;;;-0.80;99.90;;;;;;4916137;29;20177;-94
2023/11/28 06:08:29;;;;;;;4.87;3.10;;;-0.90;99.90;;;;;;4902434;29;20205;-96
2023/11/28 06:10:55;;;;;;;5.97;2.93;;;-0.90;99.90;;;;;;4908505;29;20193;-95
2023/11/28 06:13:21;;;;;;;8.03;3.67;;;-0.90;99.90;;;;;;4915058;29;20191;-95
2023/11/28 06:15:46;;;;;;;4.97;2.80;;;-0.90;99.90;;;;;;4889379;29;20195;-96
2023/11/28 06:18:22;;;;;;;5.70;2.87;;;-0.90;99.90;;;;;;4933678;29;20182;-95
2023/11/28 06:20:48;;;;;;;3.70;2.60;;;-0.90;99.90;;;;;;4915949;29;20213;-95
2023/11/28 06:23:14;;;;;;;4.70;3.13;;;-0.90;99.90;;;;;;4924877;29;20637;-96
2023/11/28 06:25:40;;;;;;;4.80;2.63;;;-0.90;99.90;;;;;;4918476;29;20190;-96
2023/11/28 06:28:18;;;;;;;4.13;2.77;;;-0.90;99.90;;;;;;4948985;29;20241;-96
2023/11/28 06:30:43;;;;;;;5.40;3.00;;;-0.80;99.90;;;;;;4910490;29;20189;-96
2023/11/28 06:33:09;;;;;;;5.47;3.23;;;-0.90;99.90;;;;;;4900140;29;20202;-94
2023/11/28 06:35:35;;;;;;;4.50;2.63;;;-0.90;99.90;;;;;;4900298;29;20215;-96
2023/11/28 06:38:02;;;;;;;5.87;2.80;;;-0.80;99.90;;;;;;4918786;29;20179;-96
2023/11/28 06:40:28;;;;;;;3.30;2.47;;;-0.90;99.90;;;;;;4933296;29;20373;-96
2023/11/28 06:42:57;;;;;;;4.20;3.00;;;-0.90;99.90;;;;;;4915607;29;20526;-95
2023/11/28 06:45:23;;;;;;;4.13;2.90;;;-0.90;99.90;;;;;;4926920;29;20266;-96
2023/11/28 06:47:52;;;;;;;4.43;2.70;;;-0.80;99.90;;;;;;4909311;29;20564;-96
2023/11/28 06:50:17;;;;;;;5.40;2.73;;;-0.80;99.90;;;;;;4914230;29;20271;-96
2023/11/28 06:52:44;;;;;;;3.73;2.60;;;-0.80;99.90;;;;;;4914615;29;20202;-96
2023/11/28 06:55:16;;;;;;;4.67;2.60;;;-0.80;99.90;;;;;;4922603;29;20210;-95
2023/11/28 06:57:45;;;;;;;3.67;2.57;;;-0.80;99.90;;;;;;4911542;29;20232;-96
2023/11/28 07:00:11;;;;;;;6.30;2.63;;;-0.90;99.90;;;;;;4902008;29;20226;-95
2023/11/28 07:02:37;;;;;;;3.37;2.27;;;-1.00;99.90;;;;;;4901334;29;20546;-94
2023/11/28 07:05:03;;;;;;;4.87;3.00;;;-1.00;99.90;;;;;;4921396;29;20190;-95
2023/11/28 07:07:29;;;;;;;4.97;3.03;;;-1.00;99.90;;;;;;4909431;29;20238;-96
2023/11/28 07:09:55;;;;;;;4.63;2.70;;;-1.00;99.90;;;;;;4907109;29;20197;-95
2023/11/28 07:12:20;;;;;;;6.70;2.90;;;-1.00;99.90;;;;;;4922316;29;20178;-94
2023/11/28 07:14:46;;;;;;;4.40;2.40;;;-1.00;99.90;;;;;;4905238;29;20201;-95
2023/11/28 07:17:12;;;;;;;4.73;2.60;;;-1.00;99.90;;;;;;4917867;29;20190;-95
2023/11/28 07:19:37;;;;;;;4.23;2.47;;;-0.90;99.90;;;;;;4911489;29;20286;-94
2023/11/28 07:22:03;;;;;;;4.40;2.37;;;-0.90;99.90;;;;;;4903652;29;20187;-96
2023/11/28 07:24:29;;;;;;;5.50;2.43;;;-0.90;99.90;;;;;;4886366;29;20179;-94
2023/11/28 07:26:55;;;;;;;3.17;2.27;;;-0.90;99.90;;;;;;4894083;29;20183;-94
2023/11/28 07:29:21;;;;;;;4.33;2.30;;;-0.90;99.90;;;;;;4910691;29;20550;-95
2023/11/28 07:31:46;;;;;;;3.73;2.20;;;-0.90;99.90;;;;;;4919734;29;20193;-94
2023/11/28 07:34:12;;;;;;;3.97;2.20;;;-0.90;99.90;;;;;;4904939;29;20183;-95
2023/11/28 07:36:38;;;;;;;3.77;2.17;;;-0.90;99.90;;;;;;4905058;29;20209;-95
2023/11/28 07:39:05;;;;;;;3.40;2.10;;;-0.90;99.90;;;;;;4904710;29;20245;-95
2023/11/28 07:41:31;;;;;;;2.60;2.07;;;-0.90;99.90;;;;;;4894609;29;20235;-96
2023/11/28 07:43:56;;;;;;;4.10;2.50;;;-1.00;99.90;;;;;;4885327;29;20191;-94
2023/11/28 07:46:23;;;;;;;3.50;2.30;;;-1.00;99.90;;;;;;4879785;29;20335;-93
2023/11/28 07:48:50;;;;;;;3.80;2.30;;;-1.00;99.90;;;;;;4886650;29;20198;-94
2023/11/28 07:51:16;;;;;;;3.20;2.10;;;-0.90;99.90;;;;;;4874664;29;20212;-95
2023/11/28 07:53:41;;;;;;;3.60;1.97;;;-0.90;99.90;;;;;;4881362;29;20218;-95
2023/11/28 07:56:08;;;;;;;4.00;2.17;;;-0.90;99.90;;;;;;4878080;29;20194;-96
2023/11/28 07:58:38;;;;;;;4.80;2.17;;;-0.90;99.90;;;;;;4885987;29;20223;-95
2023/11/28 08:01:04;;;;;;;4.17;2.07;;;-0.90;99.90;;;;;;4885735;29;20203;-94
2023/11/28 08:03:30;;;;;;;4.53;2.27;;;-0.90;99.90;;;;;;4880441;29;20191;-93
2023/11/28 08:05:55;;;;;;;4.57;2.40;;;-0.90;99.90;;;;;;4883661;29;20195;-94
2023/11/28 08:08:49;;;;;;;5.57;2.70;;;-0.90;99.90;;;;;;4885609;29;20281;-93
2023/11/28 08:11:15;;;;;;;4.83;2.30;;;-1.00;99.90;;;;;;4878169;29;20528;-94
2023/11/28 08:13:41;;;;;;;5.17;2.30;;;-0.90;99.90;;;;;;4885604;29;20187;-93
2023/11/28 08:16:07;;;;;;;5.57;2.00;;;-0.90;99.90;;;;;;4885697;29;20187;-94
2023/11/28 08:18:33;;;;;;;5.00;2.33;;;-1.00;99.90;;;;;;4885410;29;20188;-93
2023/11/28 08:21:02;;;;;;;5.57;2.37;;;-1.00;99.90;;;;;;4877142;29;20536;-94
2023/11/28 08:23:28;;;;;;;6.07;2.40;;;-1.10;99.90;;;;;;4877890;29;20187;-93
2023/11/28 08:25:53;;;;;;;5.53;2.80;;;-1.00;99.90;;;;;;4869178;29;20180;-93
2023/11/28 08:28:35;;;;;;;9.20;2.70;;;-1.20;99.90;;;;;;4877550;29;20187;-95
2023/11/28 08:31:01;;;;;;;5.50;2.40;;;-1.10;99.90;;;;;;4883898;29;20187;-94
2023/11/28 08:33:27;;;;;;;6.17;2.70;;;-1.20;99.90;;;;;;4878559;29;20190;-93
2023/11/28 08:35:53;;;;;;;7.53;3.20;;;-1.20;99.90;;;;;;4887800;29;20199;-94
2023/11/28 08:38:29;;;;;;;4.87;2.73;;;-1.20;99.90;;;;;;4886057;29;20194;-94
2023/11/28 08:40:54;;;;;;;6.23;2.53;;;-1.30;99.90;;;;;;4879068;29;20251;-94
2023/11/28 08:43:20;;;;;;;8.60;2.83;;;-1.20;99.90;;;;;;4890178;29;20262;-94
2023/11/28 08:45:46;;;;;;;8.10;3.83;;;-1.30;99.90;;;;;;4903188;29;20198;-94
2023/11/28 08:48:14;;;;;;;7.73;3.70;;;-1.30;99.90;;;;;;4883242;29;20274;-94
2023/11/28 08:50:40;;;;;;;5.53;2.87;;;-1.30;99.90;;;;;;4890631;29;20193;-94
2023/11/28 08:53:07;;;;;;;6.53;3.00;;;-1.40;99.90;;;;;;4887722;29;20195;-93
2023/11/28 08:55:33;;;;;;;6.23;2.97;;;-1.40;99.90;;;;;;4881829;29;20191;-95
2023/11/28 08:57:59;;;;;;;5.60;2.70;;;-1.40;99.90;;;;;;4886062;29;20195;-95
2023/11/28 09:00:25;;;;;;;7.50;4.27;;;-1.40;99.90;;;;;;4880678;29;20281;-94
2023/11/28 09:02:51;;;;;;;13.00;5.23;;;-1.30;99.90;;;;;;4899087;29;20679;-95
2023/11/28 09:05:17;;;;;;;12.50;7.10;;;-1.40;99.90;;;;;;4895595;29;20195;-92
2023/11/28 09:07:44;;;;;;;6.83;3.80;;;-1.40;99.90;;;;;;4892862;29;20209;-94
2023/11/28 09:10:15;;;;;;;7.47;3.83;;;-1.30;99.90;;;;;;4889216;29;20203;-91
2023/11/28 09:12:46;;;;;;;5.10;3.03;;;-1.30;99.90;;;;;;4886556;29;20183;-94
2023/11/28 09:15:13;;;;;;;6.53;3.03;;;-1.40;99.90;;;;;;4885096;29;20581;-93
2023/11/28 09:17:39;;;;;;;4.60;2.73;;;-1.30;99.90;;;;;;4879455;29;20188;-93
2023/11/28 09:20:05;;;;;;;9.93;4.47;;;-1.30;99.90;;;;;;4883742;29;20219;-94
2023/11/28 09:22:31;;;;;;;6.47;3.67;;;-1.30;99.90;;;;;;4884699;29;20187;-95
2023/11/28 09:24:57;;;;;;;16.13;6.33;;;-1.20;99.90;;;;;;4892316;29;20247;-95
2023/11/28 09:27:23;;;;;;;9.33;4.07;;;-1.20;99.90;;;;;;4884316;29;20270;-94
2023/11/28 09:29:48;;;;;;;9.17;4.10;;;-1.20;99.90;;;;;;4884255;29;20561;-96
2023/11/28 09:32:15;;;;;;;7.10;3.47;;;-1.20;99.90;;;;;;4884263;29;20199;-93
2023/11/28 09:34:43;;;;;;;10.73;4.43;;;-1.10;99.90;;;;;;4901126;29;20187;-94
2023/11/28 09:37:10;;;;;;;4.90;2.90;;;-1.00;99.90;;;;;;4884345;29;20187;-94
2023/11/28 09:39:41;;;;;;;6.47;2.60;;;-0.90;99.90;;;;;;4880805;29;20208;-96
2023/11/28 09:42:13;;;;;;;4.57;2.63;;;-0.90;99.90;;;;;;4915029;29;20234;-96
2023/11/28 09:44:42;;;;;;;3.60;2.33;;;-0.80;99.90;;;;;;4902704;29;20284;-92
2023/11/28 09:47:10;;;;;;;6.43;2.40;;;-0.70;99.90;;;;;;4894937;29;20246;-95
2023/11/28 09:49:42;;;;;;;4.27;2.53;;;-0.60;99.90;;;;;;4903159;29;20187;-96
2023/11/28 09:52:15;;;;;;;4.73;2.77;;;-0.50;99.90;;;;;;4900344;29;20191;-93
2023/11/28 09:54:41;;;;;;;6.47;2.63;;;-0.50;99.90;;;;;;4918857;29;20182;-96
2023/11/28 09:57:08;;;;;;;7.17;3.17;;;-0.40;99.90;;;;;;4903339;29;20196;-93
2023/11/28 09:59:45;;;;;;;4.50;2.37;;;-0.50;99.90;;;;;;4903075;29;20549;-96
2023/11/28 10:02:14;;;;;;;7.43;3.93;;;-0.40;99.90;;;;;;4899381;29;20657;-94
2023/11/28 10:04:40;;;;;;;17.80;6.13;;;-0.40;99.90;;;;;;4899459;29;20197;-95
2023/11/28 10:07:07;;;;;;;12.57;5.07;;;-0.30;99.90;;;;;;4899887;29;20194;-92
2023/11/28 10:09:36;;;;;;;9.73;3.70;;;-0.30;99.90;;;;;;4902668;29;20191;-92
2023/11/28 10:12:07;;;;;;;6.60;3.00;;;-0.20;99.90;;;;;;4895287;29;20191;-93
2023/11/28 10:14:33;;;;;;;5.07;2.73;;;-0.10;99.90;;;;;;4919918;29;20183;-94
2023/11/28 10:16:58;;;;;;;5.63;2.83;;;-0.10;99.90;;;;;;4902400;29;20202;-90
2023/11/28 10:19:33;;;;;;;6.07;3.20;;;-0.10;99.90;;;;;;4902434;29;20278;-92
2023/11/28 10:22:04;;;;;;;6.80;3.50;;;-0.10;99.90;;;;;;4911494;29;20497;-92
2023/11/28 10:24:30;;;;;;;7.40;4.13;;;0.00;99.90;;;;;;4909412;29;20194;-88
2023/11/28 10:26:56;;;;;;;3.43;2.30;;;0.00;99.90;;;;;;4905729;29;20182;-92
2023/11/28 10:29:24;;;;;;;4.60;2.80;;;-0.10;99.90;;;;;;4895074;29;20187;-88
2023/11/28 10:31:49;;;;;;;4.67;2.43;;;0.00;99.90;;;;;;4901595;29;20186;-90
2023/11/28 10:34:15;;;;;;;4.73;3.20;;;0.10;99.90;;;;;;4902113;29;20534;-90
2023/11/28 10:36:42;;;;;;;3.00;2.13;;;0.10;99.90;;;;;;4901933;29;20190;-92
2023/11/28 10:39:12;;;;;;;3.03;2.00;;;0.10;99.90;;;;;;4899118;29;20659;-90
2023/11/28 10:41:42;;;;;;;3.43;2.10;;;0.20;99.90;;;;;;4913804;29;20236;-91
2023/11/28 10:44:08;;;;;;;3.63;2.30;;;0.20;99.90;;;;;;4916298;29;20186;-90
2023/11/28 10:46:37;;;;;;;10.00;3.53;;;0.30;99.90;;;;;;4913559;29;20518;-93
2023/11/28 10:49:05;;;;;;;14.13;6.73;;;0.30;99.90;;;;;;4911060;29;20193;-92
2023/11/28 10:51:31;;;;;;;7.77;3.83;;;0.30;99.90;;;;;;4921040;29;20182;-93
2023/11/28 10:54:08;;;;;;;4.57;2.10;;;0.30;99.90;;;;;;4892186;29;20182;-93
2023/11/28 10:56:55;;;;;;;4.97;3.10;;;0.40;99.90;;;;;;4918476;29;20213;-92
2023/11/28 10:59:33;;;;;;;3.13;2.23;;;0.50;99.90;;;;;;4885941;29;20266;-91
2023/11/28 11:02:01;;;;;;;7.30;3.80;;;0.50;99.90;;;;;;4901495;29;20194;-93
2023/11/28 11:04:28;;;;;;;3.37;2.40;;;0.60;99.90;;;;;;4901621;29;20226;-94
2023/11/28 11:06:54;;;;;;;3.23;2.20;;;0.60;99.90;;;;;;4918431;29;20183;-94
2023/11/28 11:09:24;;;;;;;3.37;2.00;;;0.50;99.90;;;;;;4906309;29;20230;-94
2023/11/28 11:11:55;;;;;;;4.30;2.20;;;0.50;99.90;;;;;;4915245;29;20195;-95
2023/11/28 11:14:49;;;;;;;3.90;2.10;;;0.60;99.90;;;;;;4905941;29;20189;-96
2023/11/28 11:17:25;;;;;;;2.97;2.03;;;0.50;99.90;;;;;;4894293;29;20186;-95
2023/11/28 11:19:56;;;;;;;2.57;2.00;;;0.50;99.90;;;;;;4901638;29;20229;-94
2023/11/28 11:22:26;;;;;;;2.93;2.10;;;0.60;99.90;;;;;;4901614;29;20183;-96
2023/11/28 11:24:53;;;;;;;2.97;1.77;;;0.70;99.90;;;;;;4903465;29;20690;-95
2023/11/28 11:27:19;;;;;;;3.87;2.50;;;0.70;99.90;;;;;;4913287;29;20553;-96
2023/11/28 11:29:47;;;;;;;2.80;2.03;;;0.70;99.90;;;;;;4919309;29;20178;-96
2023/11/28 11:32:15;;;;;;;2.27;1.60;;;0.70;99.90;;;;;;4917650;29;20241;-96
2023/11/28 11:34:48;;;;;;;2.13;1.67;;;0.70;99.90;;;;;;4926380;29;20171;-96
2023/11/28 11:37:18;;;;;;;2.17;1.60;;;0.80;99.90;;;;;;4918838;29;20246;-94
2023/11/28 11:39:48;;;;;;;2.63;1.87;;;0.70;99.90;;;;;;4913521;29;20209;-95
2023/11/28 11:42:17;;;;;;;2.77;2.00;;;0.70;99.90;;;;;;4908874;29;20245;-90
2023/11/28 11:44:49;;;;;;;4.40;2.30;;;0.60;99.90;;;;;;4918024;29;20187;-96
2023/11/28 11:47:23;;;;;;;3.37;1.90;;;0.60;99.90;;;;;;4920384;29;20268;-96
2023/11/28 11:49:51;;;;;;;2.90;2.13;;;0.70;99.90;;;;;;4911171;29;20206;-94
2023/11/28 11:52:18;;;;;;;3.13;2.07;;;0.60;99.90;;;;;;4912056;29;20278;-96
2023/11/28 11:54:45;;;;;;;2.80;1.70;;;0.70;99.90;;;;;;4918201;29;20190;-91
2023/11/28 11:57:11;;;;;;;2.30;1.90;;;0.70;99.90;;;;;;4894533;29;20187;-96
2023/11/28 11:59:38;;;;;;;2.70;1.60;;;0.70;99.90;;;;;;4892739;29;20222;-96
2023/11/28 12:02:04;;;;;;;3.33;2.03;;;0.60;99.90;;;;;;4904513;29;20289;-89
2023/11/28 12:04:31;;;;;;;8.63;3.90;;;0.60;99.90;;;;;;4906891;29;20517;-95
2023/11/28 12:07:11;;;;;;;7.33;2.70;;;0.60;99.90;;;;;;4905596;29;20197;-96
2023/11/28 12:09:37;;;;;;;7.07;3.93;;;0.60;99.90;;;;;;4897615;29;20284;-95
2023/11/28 12:12:16;;;;;;;3.57;2.13;;;0.50;99.90;;;;;;4907859;29;20270;-96
2023/11/28 12:14:42;;;;;;;4.03;2.37;;;0.50;99.90;;;;;;4913619;29;20189;-96
2023/11/28 12:17:08;;;;;;;2.53;1.70;;;0.50;99.90;;;;;;4925889;29;20198;-93
2023/11/28 12:19:34;;;;;;;2.70;2.10;;;0.50;99.90;;;;;;4923780;29;20296;-95
2023/11/28 12:22:04;;;;;;;4.33;2.57;;;0.50;99.90;;;;;;4916728;29;20255;-96
2023/11/28 12:24:33;;;;;;;1.87;1.50;;;0.50;99.90;;;;;;4928232;29;20657;-96
2023/11/28 12:26:59;;;;;;;1.70;1.40;;;0.40;99.90;;;;;;4921742;29;20183;-96
2023/11/28 12:29:25;;;;;;;3.10;1.87;;;0.40;99.90;;;;;;4910792;29;20645;-96
2023/11/28 12:31:53;;;;;;;2.07;1.50;;;0.40;99.90;;;;;;4910723;29;20191;-91
2023/11/28 12:34:26;;;;;;;2.30;1.67;;;0.40;99.90;;;;;;4901090;29;20195;-96
2023/11/28 12:36:56;;;;;;;3.70;2.67;;;0.40;99.90;;;;;;4910208;29;20643;-96
2023/11/28 12:39:23;;;;;;;3.70;2.57;;;0.40;99.90;;;;;;4920360;29;20730;-95
2023/11/28 12:41:50;;;;;;;2.40;1.97;;;0.50;99.90;;;;;;4891397;29;20303;-94
2023/11/28 12:44:19;;;;;;;4.60;2.50;;;0.50;99.90;;;;;;5029236;23;20225;-96
2023/11/28 12:49:10;;;;;;;2.13;1.57;;;0.70;99.90;;;;;;5084973;23;20238;-96
2023/11/28 12:51:43;;;;;;;2.63;1.80;;;0.80;99.90;;;;;;4967139;23;20275;-94
2023/11/28 12:54:11;;;;;;;4.00;2.10;;;0.80;99.90;;;;;;4981916;23;20504;-91
2023/11/28 12:56:46;;;;;;;3.60;1.70;;;0.80;99.90;;;;;;5108986;23;21078;-96